sensor_id;sensor_type;location;lat;lon;timestamp;P1;durP1;ratioP1;P2;durP2;ratioP2
19812;SDS011;10066;48.108;11.448;2022-07-03T00:02:25;5.60;;;4.20;;
19812;SDS011;10066;48.108;11.448;2022-07-03T00:04:52;5.53;;;4.23;;
19812;SDS011;10066;48.108;11.448;2022-07-03T00:07:19;5.97;;;4.27;;
19812;SDS011;10066;48.108;11.448;2022-07-03T00:09:47;5.03;;;3.97;;
19812;SDS011;10066;48.108;11.448;2022-07-03T00:12:15;5.07;;;3.83;;
19812;SDS011;10066;48.108;11.448;2022-07-03T00:14:42;5.73;;;4.40;;
19812;SDS011;10066;48.108;11.448;2022-07-03T00:17:09;7.10;;;3.97;;
19812;SDS011;10066;48.108;11.448;2022-07-03T00:19:37;6.03;;;3.83;;
19812;SDS011;10066;48.108;11.448;2022-07-03T00:22:04;4.93;;;3.83;;
19812;SDS011;10066;48.108;11.448;2022-07-03T00:24:37;4.83;;;3.80;;
19812;SDS011;10066;48.108;11.448;2022-07-03T00:27:10;4.93;;;3.73;;
19812;SDS011;10066;48.108;11.448;2022-07-03T00:29:38;4.47;;;3.40;;
19812;SDS011;10066;48.108;11.448;2022-07-03T00:32:09;3.60;;;3.30;;
19812;SDS011;10066;48.108;11.448;2022-07-03T00:34:38;5.00;;;3.43;;
19812;SDS011;10066;48.108;11.448;2022-07-03T00:37:06;3.77;;;3.20;;
19812;SDS011;10066;48.108;11.448;2022-07-03T00:39:35;3.43;;;3.10;;
19812;SDS011;10066;48.108;11.448;2022-07-03T00:42:04;4.93;;;3.27;;
19812;SDS011;10066;48.108;11.448;2022-07-03T00:44:33;7.57;;;3.30;;
19812;SDS011;10066;48.108;11.448;2022-07-03T00:47:02;3.60;;;2.70;;
19812;SDS011;10066;48.108;11.448;2022-07-03T00:49:31;4.77;;;3.00;;
19812;SDS011;10066;48.108;11.448;2022-07-03T00:52:02;3.97;;;2.57;;
19812;SDS011;10066;48.108;11.448;2022-07-03T00:54:32;3.43;;;2.70;;
19812;SDS011;10066;48.108;11.448;2022-07-03T00:57:00;3.83;;;3.17;;
19812;SDS011;10066;48.108;11.448;2022-07-03T00:59:28;3.80;;;2.90;;
19812;SDS011;10066;48.108;11.448;2022-07-03T01:01:59;4.60;;;3.50;;
19812;SDS011;10066;48.108;11.448;2022-07-03T01:04:33;4.20;;;2.60;;
19812;SDS011;10066;48.108;11.448;2022-07-03T01:07:10;6.40;;;3.20;;
19812;SDS011;10066;48.108;11.448;2022-07-03T01:09:44;3.90;;;2.77;;
19812;SDS011;10066;48.108;11.448;2022-07-03T01:12:22;5.20;;;2.73;;
19812;SDS011;10066;48.108;11.448;2022-07-03T01:14:55;3.43;;;2.50;;
19812;SDS011;10066;48.108;11.448;2022-07-03T01:17:31;3.83;;;2.70;;
19812;SDS011;10066;48.108;11.448;2022-07-03T01:20:00;5.13;;;2.60;;
19812;SDS011;10066;48.108;11.448;2022-07-03T01:22:32;3.30;;;2.53;;
19812;SDS011;10066;48.108;11.448;2022-07-03T01:25:14;4.90;;;2.53;;
19812;SDS011;10066;48.108;11.448;2022-07-03T01:30:38;5.37;;;2.83;;
19812;SDS011;10066;48.108;11.448;2022-07-03T01:33:07;2.60;;;2.40;;
19812;SDS011;10066;48.108;11.448;2022-07-03T01:35:36;3.97;;;2.57;;
19812;SDS011;10066;48.108;11.448;2022-07-03T01:38:06;3.37;;;2.53;;
19812;SDS011;10066;48.108;11.448;2022-07-03T01:40:36;3.90;;;2.60;;
19812;SDS011;10066;48.108;11.448;2022-07-03T01:43:05;3.30;;;2.40;;
19812;SDS011;10066;48.108;11.448;2022-07-03T01:45:36;4.70;;;3.10;;
19812;SDS011;10066;48.108;11.448;2022-07-03T01:48:06;6.63;;;2.77;;
19812;SDS011;10066;48.108;11.448;2022-07-03T01:50:34;2.77;;;2.40;;
19812;SDS011;10066;48.108;11.448;2022-07-03T01:53:03;3.33;;;2.33;;
19812;SDS011;10066;48.108;11.448;2022-07-03T01:55:31;3.20;;;2.37;;
19812;SDS011;10066;48.108;11.448;2022-07-03T01:58:00;3.03;;;2.37;;
19812;SDS011;10066;48.108;11.448;2022-07-03T02:00:30;3.60;;;2.73;;
19812;SDS011;10066;48.108;11.448;2022-07-03T02:03:01;3.37;;;2.40;;
19812;SDS011;10066;48.108;11.448;2022-07-03T02:05:32;2.70;;;2.33;;
19812;SDS011;10066;48.108;11.448;2022-07-03T02:08:03;3.97;;;2.20;;
19812;SDS011;10066;48.108;11.448;2022-07-03T02:10:33;3.83;;;2.20;;
19812;SDS011;10066;48.108;11.448;2022-07-03T02:13:06;2.93;;;2.23;;
19812;SDS011;10066;48.108;11.448;2022-07-03T02:15:34;3.13;;;1.97;;
19812;SDS011;10066;48.108;11.448;2022-07-03T02:18:05;2.83;;;2.30;;
19812;SDS011;10066;48.108;11.448;2022-07-03T02:20:38;5.00;;;2.43;;
19812;SDS011;10066;48.108;11.448;2022-07-03T02:23:11;2.30;;;2.10;;
19812;SDS011;10066;48.108;11.448;2022-07-03T02:25:42;5.77;;;2.20;;
19812;SDS011;10066;48.108;11.448;2022-07-03T02:28:17;2.67;;;1.70;;
19812;SDS011;10066;48.108;11.448;2022-07-03T02:30:51;2.43;;;2.00;;
19812;SDS011;10066;48.108;11.448;2022-07-03T02:33:25;2.53;;;2.00;;
19812;SDS011;10066;48.108;11.448;2022-07-03T02:35:54;2.57;;;2.00;;
19812;SDS011;10066;48.108;11.448;2022-07-03T02:38:23;2.83;;;1.93;;
19812;SDS011;10066;48.108;11.448;2022-07-03T02:40:54;2.60;;;2.30;;
19812;SDS011;10066;48.108;11.448;2022-07-03T02:43:28;2.83;;;2.40;;
19812;SDS011;10066;48.108;11.448;2022-07-03T02:46:04;2.57;;;2.23;;
19812;SDS011;10066;48.108;11.448;2022-07-03T02:48:48;2.40;;;2.20;;
19812;SDS011;10066;48.108;11.448;2022-07-03T02:51:20;4.73;;;2.50;;
19812;SDS011;10066;48.108;11.448;2022-07-03T02:53:52;3.10;;;2.30;;
19812;SDS011;10066;48.108;11.448;2022-07-03T02:56:27;7.53;;;2.20;;
19812;SDS011;10066;48.108;11.448;2022-07-03T02:59:03;2.90;;;2.10;;
19812;SDS011;10066;48.108;11.448;2022-07-03T03:01:41;2.93;;;2.23;;
19812;SDS011;10066;48.108;11.448;2022-07-03T03:04:18;3.47;;;1.87;;
19812;SDS011;10066;48.108;11.448;2022-07-03T03:06:48;4.73;;;2.27;;
19812;SDS011;10066;48.108;11.448;2022-07-03T03:09:24;2.60;;;2.40;;
19812;SDS011;10066;48.108;11.448;2022-07-03T03:11:54;4.13;;;2.23;;
19812;SDS011;10066;48.108;11.448;2022-07-03T03:14:27;3.33;;;2.23;;
19812;SDS011;10066;48.108;11.448;2022-07-03T03:17:01;2.30;;;2.10;;
19812;SDS011;10066;48.108;11.448;2022-07-03T03:19:34;3.53;;;2.13;;
19812;SDS011;10066;48.108;11.448;2022-07-03T03:22:07;5.30;;;2.13;;
19812;SDS011;10066;48.108;11.448;2022-07-03T03:24:47;2.33;;;2.03;;
19812;SDS011;10066;48.108;11.448;2022-07-03T03:27:14;2.33;;;2.00;;
19812;SDS011;10066;48.108;11.448;2022-07-03T03:29:42;4.97;;;2.10;;
19812;SDS011;10066;48.108;11.448;2022-07-03T03:32:08;2.30;;;2.07;;
19812;SDS011;10066;48.108;11.448;2022-07-03T03:34:39;6.70;;;2.40;;
19812;SDS011;10066;48.108;11.448;2022-07-03T03:37:07;3.87;;;2.23;;
19812;SDS011;10066;48.108;11.448;2022-07-03T03:39:34;2.27;;;2.07;;
19812;SDS011;10066;48.108;11.448;2022-07-03T03:42:02;2.60;;;2.40;;
19812;SDS011;10066;48.108;11.448;2022-07-03T03:44:30;2.57;;;2.37;;
19812;SDS011;10066;48.108;11.448;2022-07-03T03:46:57;3.80;;;2.33;;
19812;SDS011;10066;48.108;11.448;2022-07-03T03:49:24;2.73;;;2.30;;
19812;SDS011;10066;48.108;11.448;2022-07-03T03:51:53;3.03;;;2.40;;
19812;SDS011;10066;48.108;11.448;2022-07-03T03:54:22;2.30;;;2.10;;
19812;SDS011;10066;48.108;11.448;2022-07-03T03:56:49;3.63;;;2.27;;
19812;SDS011;10066;48.108;11.448;2022-07-03T03:59:16;3.10;;;2.60;;
19812;SDS011;10066;48.108;11.448;2022-07-03T04:01:43;2.23;;;2.03;;
19812;SDS011;10066;48.108;11.448;2022-07-03T04:04:13;6.30;;;2.37;;
19812;SDS011;10066;48.108;11.448;2022-07-03T04:06:42;2.90;;;2.60;;
19812;SDS011;10066;48.108;11.448;2022-07-03T04:09:11;3.30;;;2.60;;
19812;SDS011;10066;48.108;11.448;2022-07-03T04:11:38;4.00;;;2.60;;
19812;SDS011;10066;48.108;11.448;2022-07-03T04:14:05;4.77;;;2.47;;
19812;SDS011;10066;48.108;11.448;2022-07-03T04:16:33;3.43;;;2.40;;
19812;SDS011;10066;48.108;11.448;2022-07-03T04:19:00;2.40;;;2.03;;
19812;SDS011;10066;48.108;11.448;2022-07-03T04:21:27;2.47;;;2.20;;
19812;SDS011;10066;48.108;11.448;2022-07-03T04:23:55;2.40;;;2.20;;
19812;SDS011;10066;48.108;11.448;2022-07-03T04:26:23;1.93;;;1.83;;
19812;SDS011;10066;48.108;11.448;2022-07-03T04:28:50;3.40;;;2.03;;
19812;SDS011;10066;48.108;11.448;2022-07-03T04:31:17;2.97;;;1.80;;
19812;SDS011;10066;48.108;11.448;2022-07-03T04:33:44;1.70;;;1.60;;
19812;SDS011;10066;48.108;11.448;2022-07-03T04:36:11;1.60;;;1.50;;
19812;SDS011;10066;48.108;11.448;2022-07-03T04:38:38;1.83;;;1.60;;
19812;SDS011;10066;48.108;11.448;2022-07-03T04:41:05;2.27;;;1.60;;
19812;SDS011;10066;48.108;11.448;2022-07-03T04:43:33;2.17;;;1.50;;
19812;SDS011;10066;48.108;11.448;2022-07-03T04:46:02;3.30;;;1.30;;
19812;SDS011;10066;48.108;11.448;2022-07-03T04:48:30;3.83;;;1.67;;
19812;SDS011;10066;48.108;11.448;2022-07-03T04:50:57;2.33;;;1.50;;
19812;SDS011;10066;48.108;11.448;2022-07-03T04:53:25;3.20;;;1.30;;
19812;SDS011;10066;48.108;11.448;2022-07-03T04:55:52;2.10;;;1.70;;
19812;SDS011;10066;48.108;11.448;2022-07-03T04:58:19;1.93;;;1.30;;
19812;SDS011;10066;48.108;11.448;2022-07-03T05:00:48;1.50;;;1.13;;
19812;SDS011;10066;48.108;11.448;2022-07-03T05:03:15;3.10;;;1.30;;
19812;SDS011;10066;48.108;11.448;2022-07-03T05:05:42;1.90;;;1.00;;
19812;SDS011;10066;48.108;11.448;2022-07-03T05:08:09;2.33;;;1.27;;
19812;SDS011;10066;48.108;11.448;2022-07-03T05:10:36;2.63;;;1.20;;
19812;SDS011;10066;48.108;11.448;2022-07-03T05:13:03;2.40;;;1.50;;
19812;SDS011;10066;48.108;11.448;2022-07-03T05:15:30;1.70;;;1.20;;
19812;SDS011;10066;48.108;11.448;2022-07-03T05:17:59;1.57;;;1.07;;
19812;SDS011;10066;48.108;11.448;2022-07-03T05:20:27;1.40;;;1.20;;
19812;SDS011;10066;48.108;11.448;2022-07-03T05:22:55;1.20;;;1.10;;
19812;SDS011;10066;48.108;11.448;2022-07-03T05:25:23;1.97;;;1.30;;
19812;SDS011;10066;48.108;11.448;2022-07-03T05:27:50;1.90;;;1.10;;
19812;SDS011;10066;48.108;11.448;2022-07-03T05:30:19;1.20;;;1.10;;
19812;SDS011;10066;48.108;11.448;2022-07-03T05:32:47;2.73;;;1.20;;
19812;SDS011;10066;48.108;11.448;2022-07-03T05:35:15;1.83;;;1.33;;
19812;SDS011;10066;48.108;11.448;2022-07-03T05:37:42;1.87;;;1.40;;
19812;SDS011;10066;48.108;11.448;2022-07-03T05:40:10;1.87;;;1.50;;
19812;SDS011;10066;48.108;11.448;2022-07-03T05:42:37;1.73;;;1.30;;
19812;SDS011;10066;48.108;11.448;2022-07-03T05:45:05;3.33;;;1.50;;
19812;SDS011;10066;48.108;11.448;2022-07-03T05:47:33;1.10;;;1.00;;
19812;SDS011;10066;48.108;11.448;2022-07-03T05:50:00;1.53;;;1.37;;
19812;SDS011;10066;48.108;11.448;2022-07-03T05:52:29;2.13;;;1.30;;
19812;SDS011;10066;48.108;11.448;2022-07-03T05:54:55;1.30;;;1.17;;
19812;SDS011;10066;48.108;11.448;2022-07-03T05:57:22;2.03;;;1.30;;
19812;SDS011;10066;48.108;11.448;2022-07-03T05:59:49;1.87;;;1.20;;
19812;SDS011;10066;48.108;11.448;2022-07-03T06:02:16;1.73;;;1.30;;
19812;SDS011;10066;48.108;11.448;2022-07-03T06:04:43;1.47;;;1.30;;
19812;SDS011;10066;48.108;11.448;2022-07-03T06:07:10;2.90;;;1.40;;
19812;SDS011;10066;48.108;11.448;2022-07-03T06:09:39;1.50;;;1.23;;
19812;SDS011;10066;48.108;11.448;2022-07-03T06:12:06;1.80;;;1.20;;
19812;SDS011;10066;48.108;11.448;2022-07-03T06:14:34;2.43;;;1.30;;
19812;SDS011;10066;48.108;11.448;2022-07-03T06:17:01;1.30;;;1.00;;
19812;SDS011;10066;48.108;11.448;2022-07-03T06:19:28;1.83;;;1.30;;
19812;SDS011;10066;48.108;11.448;2022-07-03T06:21:55;1.63;;;1.10;;
19812;SDS011;10066;48.108;11.448;2022-07-03T06:24:22;1.73;;;1.10;;
19812;SDS011;10066;48.108;11.448;2022-07-03T06:26:51;2.87;;;1.20;;
19812;SDS011;10066;48.108;11.448;2022-07-03T06:29:17;1.33;;;0.97;;
19812;SDS011;10066;48.108;11.448;2022-07-03T06:31:45;1.90;;;1.07;;
19812;SDS011;10066;48.108;11.448;2022-07-03T06:34:13;1.30;;;1.20;;
19812;SDS011;10066;48.108;11.448;2022-07-03T06:36:40;2.63;;;1.50;;
19812;SDS011;10066;48.108;11.448;2022-07-03T06:39:07;2.70;;;1.50;;
19812;SDS011;10066;48.108;11.448;2022-07-03T06:41:34;1.60;;;1.00;;
19812;SDS011;10066;48.108;11.448;2022-07-03T06:44:02;2.93;;;1.30;;
19812;SDS011;10066;48.108;11.448;2022-07-03T06:46:29;1.25;;;1.15;;
19812;SDS011;10066;48.108;11.448;2022-07-03T06:48:59;0.80;;;0.80;;
19812;SDS011;10066;48.108;11.448;2022-07-03T06:51:28;1.65;;;1.13;;
19812;SDS011;10066;48.108;11.448;2022-07-03T06:53:58;1.30;;;1.20;;
19812;SDS011;10066;48.108;11.448;2022-07-03T06:56:25;1.58;;;1.10;;
19812;SDS011;10066;48.108;11.448;2022-07-03T06:58:53;1.17;;;1.08;;
19812;SDS011;10066;48.108;11.448;2022-07-03T07:01:21;1.40;;;1.30;;
19812;SDS011;10066;48.108;11.448;2022-07-03T07:03:48;1.45;;;0.98;;
19812;SDS011;10066;48.108;11.448;2022-07-03T07:06:15;2.28;;;1.00;;
19812;SDS011;10066;48.108;11.448;2022-07-03T07:08:42;2.22;;;1.00;;
19812;SDS011;10066;48.108;11.448;2022-07-03T07:11:09;1.10;;;1.00;;
19812;SDS011;10066;48.108;11.448;2022-07-03T07:13:36;2.13;;;1.02;;
19812;SDS011;10066;48.108;11.448;2022-07-03T07:16:03;2.40;;;1.08;;
19812;SDS011;10066;48.108;11.448;2022-07-03T07:18:32;4.85;;;1.30;;
19812;SDS011;10066;48.108;11.448;2022-07-03T07:21:00;1.50;;;1.10;;
19812;SDS011;10066;48.108;11.448;2022-07-03T07:23:27;2.22;;;0.90;;
19812;SDS011;10066;48.108;11.448;2022-07-03T07:25:54;1.92;;;1.00;;
19812;SDS011;10066;48.108;11.448;2022-07-03T07:28:22;1.50;;;1.00;;
19812;SDS011;10066;48.108;11.448;2022-07-03T07:30:49;1.23;;;1.10;;
19812;SDS011;10066;48.108;11.448;2022-07-03T07:33:20;1.05;;;1.00;;
19812;SDS011;10066;48.108;11.448;2022-07-03T07:35:50;1.25;;;1.13;;
19812;SDS011;10066;48.108;11.448;2022-07-03T07:38:17;2.67;;;1.40;;
19812;SDS011;10066;48.108;11.448;2022-07-03T07:40:44;1.30;;;1.20;;
19812;SDS011;10066;48.108;11.448;2022-07-03T07:43:11;1.93;;;1.30;;
19812;SDS011;10066;48.108;11.448;2022-07-03T07:45:39;3.03;;;1.10;;
19812;SDS011;10066;48.108;11.448;2022-07-03T07:48:06;2.47;;;1.20;;
19812;SDS011;10066;48.108;11.448;2022-07-03T07:50:33;3.07;;;1.00;;
19812;SDS011;10066;48.108;11.448;2022-07-03T07:53:02;1.17;;;1.03;;
19812;SDS011;10066;48.108;11.448;2022-07-03T07:55:29;2.40;;;1.20;;
19812;SDS011;10066;48.108;11.448;2022-07-03T07:57:57;1.50;;;1.20;;
19812;SDS011;10066;48.108;11.448;2022-07-03T08:00:24;1.30;;;1.00;;
19812;SDS011;10066;48.108;11.448;2022-07-03T08:02:52;1.20;;;1.10;;
19812;SDS011;10066;48.108;11.448;2022-07-03T08:05:37;1.20;;;1.03;;
19812;SDS011;10066;48.108;11.448;2022-07-03T08:08:07;1.87;;;1.23;;
19812;SDS011;10066;48.108;11.448;2022-07-03T08:10:36;1.93;;;1.10;;
19812;SDS011;10066;48.108;11.448;2022-07-03T08:13:05;1.23;;;1.00;;
19812;SDS011;10066;48.108;11.448;2022-07-03T08:15:32;2.20;;;1.00;;
19812;SDS011;10066;48.108;11.448;2022-07-03T08:17:59;1.83;;;1.03;;
19812;SDS011;10066;48.108;11.448;2022-07-03T08:20:27;1.70;;;1.00;;
19812;SDS011;10066;48.108;11.448;2022-07-03T08:22:55;1.07;;;0.97;;
19812;SDS011;10066;48.108;11.448;2022-07-03T08:25:24;1.60;;;1.17;;
19812;SDS011;10066;48.108;11.448;2022-07-03T08:27:51;1.10;;;0.90;;
19812;SDS011;10066;48.108;11.448;2022-07-03T08:30:19;1.57;;;0.87;;
19812;SDS011;10066;48.108;11.448;2022-07-03T08:32:46;2.00;;;1.23;;
19812;SDS011;10066;48.108;11.448;2022-07-03T08:35:15;1.97;;;0.90;;
19812;SDS011;10066;48.108;11.448;2022-07-03T08:37:42;1.87;;;1.00;;
19812;SDS011;10066;48.108;11.448;2022-07-03T08:40:11;1.10;;;1.00;;
19812;SDS011;10066;48.108;11.448;2022-07-03T08:42:42;2.50;;;1.10;;
19812;SDS011;10066;48.108;11.448;2022-07-03T08:45:13;1.20;;;1.00;;
19812;SDS011;10066;48.108;11.448;2022-07-03T08:47:41;1.10;;;1.00;;
19812;SDS011;10066;48.108;11.448;2022-07-03T08:50:09;1.50;;;1.20;;
19812;SDS011;10066;48.108;11.448;2022-07-03T08:52:37;0.80;;;0.80;;
19812;SDS011;10066;48.108;11.448;2022-07-03T08:55:05;1.13;;;1.03;;
19812;SDS011;10066;48.108;11.448;2022-07-03T08:57:33;1.57;;;1.30;;
19812;SDS011;10066;48.108;11.448;2022-07-03T09:00:06;1.53;;;1.00;;
19812;SDS011;10066;48.108;11.448;2022-07-03T09:02:35;1.13;;;1.03;;
19812;SDS011;10066;48.108;11.448;2022-07-03T09:05:06;1.10;;;1.00;;
19812;SDS011;10066;48.108;11.448;2022-07-03T09:07:35;1.23;;;0.97;;
19812;SDS011;10066;48.108;11.448;2022-07-03T09:10:03;2.77;;;1.00;;
19812;SDS011;10066;48.108;11.448;2022-07-03T09:12:32;1.43;;;1.00;;
19812;SDS011;10066;48.108;11.448;2022-07-03T09:14:59;1.43;;;1.00;;
19812;SDS011;10066;48.108;11.448;2022-07-03T09:17:28;1.73;;;0.90;;
19812;SDS011;10066;48.108;11.448;2022-07-03T09:19:57;1.10;;;0.87;;
19812;SDS011;10066;48.108;11.448;2022-07-03T09:22:26;1.33;;;0.90;;
19812;SDS011;10066;48.108;11.448;2022-07-03T09:24:54;1.33;;;0.93;;
19812;SDS011;10066;48.108;11.448;2022-07-03T09:27:30;1.00;;;0.80;;
19812;SDS011;10066;48.108;11.448;2022-07-03T09:29:57;1.37;;;0.90;;
19812;SDS011;10066;48.108;11.448;2022-07-03T09:32:25;3.30;;;1.00;;
19812;SDS011;10066;48.108;11.448;2022-07-03T09:35:11;1.37;;;1.00;;
19812;SDS011;10066;48.108;11.448;2022-07-03T09:37:49;2.60;;;0.90;;
19812;SDS011;10066;48.108;11.448;2022-07-03T09:40:18;2.03;;;0.90;;
19812;SDS011;10066;48.108;11.448;2022-07-03T09:43:03;2.03;;;0.90;;
19812;SDS011;10066;48.108;11.448;2022-07-03T09:45:50;1.52;;;0.68;;
19812;SDS011;10066;48.108;11.448;2022-07-03T09:48:22;1.08;;;0.80;;
19812;SDS011;10066;48.108;11.448;2022-07-03T09:51:07;1.37;;;0.70;;
19812;SDS011;10066;48.108;11.448;2022-07-03T09:53:48;4.35;;;0.80;;
19812;SDS011;10066;48.108;11.448;2022-07-03T09:56:18;2.55;;;0.70;;
19812;SDS011;10066;48.108;11.448;2022-07-03T10:01:33;0.95;;;0.70;;
19812;SDS011;10066;48.108;11.448;2022-07-03T10:04:11;1.08;;;0.80;;
19812;SDS011;10066;48.108;11.448;2022-07-03T10:06:47;2.78;;;0.70;;
19812;SDS011;10066;48.108;11.448;2022-07-03T10:09:17;1.02;;;0.77;;
19812;SDS011;10066;48.108;11.448;2022-07-03T10:11:45;3.33;;;1.00;;
19812;SDS011;10066;48.108;11.448;2022-07-03T10:14:13;0.88;;;0.70;;
19812;SDS011;10066;48.108;11.448;2022-07-03T10:16:41;1.05;;;0.80;;
19812;SDS011;10066;48.108;11.448;2022-07-03T10:19:11;0.57;;;0.57;;
19812;SDS011;10066;48.108;11.448;2022-07-03T10:21:41;0.90;;;0.60;;
19812;SDS011;10066;48.108;11.448;2022-07-03T10:24:11;2.17;;;0.60;;
19812;SDS011;10066;48.108;11.448;2022-07-03T10:26:39;1.00;;;0.63;;
19812;SDS011;10066;48.108;11.448;2022-07-03T10:29:10;0.80;;;0.63;;
19812;SDS011;10066;48.108;11.448;2022-07-03T10:31:41;0.60;;;0.60;;
19812;SDS011;10066;48.108;11.448;2022-07-03T10:34:12;2.15;;;0.60;;
19812;SDS011;10066;48.108;11.448;2022-07-03T10:36:43;0.60;;;0.60;;
19812;SDS011;10066;48.108;11.448;2022-07-03T10:39:16;0.73;;;0.52;;
19812;SDS011;10066;48.108;11.448;2022-07-03T10:41:53;1.02;;;0.55;;
19812;SDS011;10066;48.108;11.448;2022-07-03T10:44:50;1.40;;;0.90;;
19812;SDS011;10066;48.108;11.448;2022-07-03T10:47:38;0.73;;;0.68;;
19812;SDS011;10066;48.108;11.448;2022-07-03T10:50:07;0.68;;;0.50;;
19812;SDS011;10066;48.108;11.448;2022-07-03T10:52:36;0.52;;;0.52;;
19812;SDS011;10066;48.108;11.448;2022-07-03T10:55:06;0.50;;;0.50;;
19812;SDS011;10066;48.108;11.448;2022-07-03T10:57:34;2.88;;;0.73;;
19812;SDS011;10066;48.108;11.448;2022-07-03T11:02:48;0.98;;;0.50;;
19812;SDS011;10066;48.108;11.448;2022-07-03T11:08:03;0.55;;;0.55;;
19812;SDS011;10066;48.108;11.448;2022-07-03T11:10:36;0.73;;;0.70;;
19812;SDS011;10066;48.108;11.448;2022-07-03T11:13:08;1.75;;;0.80;;
19812;SDS011;10066;48.108;11.448;2022-07-03T11:15:38;0.60;;;0.50;;
19812;SDS011;10066;48.108;11.448;2022-07-03T11:18:07;1.48;;;0.60;;
19812;SDS011;10066;48.108;11.448;2022-07-03T11:27:20;0.93;;;0.52;;
19812;SDS011;10066;48.108;11.448;2022-07-03T11:29:56;1.60;;;0.75;;
19812;SDS011;10066;48.108;11.448;2022-07-03T11:38:23;0.70;;;0.63;;
19812;SDS011;10066;48.108;11.448;2022-07-03T11:40:53;2.75;;;0.65;;
19812;SDS011;10066;48.108;11.448;2022-07-03T11:43:24;0.80;;;0.70;;
19812;SDS011;10066;48.108;11.448;2022-07-03T11:45:52;1.85;;;0.43;;
19812;SDS011;10066;48.108;11.448;2022-07-03T11:48:20;0.88;;;0.50;;
19812;SDS011;10066;48.108;11.448;2022-07-03T11:50:48;1.15;;;0.70;;
19812;SDS011;10066;48.108;11.448;2022-07-03T11:53:23;1.17;;;0.70;;
19812;SDS011;10066;48.108;11.448;2022-07-03T11:55:52;2.47;;;0.70;;
19812;SDS011;10066;48.108;11.448;2022-07-03T11:58:22;1.65;;;0.80;;
19812;SDS011;10066;48.108;11.448;2022-07-03T12:00:52;1.13;;;0.60;;
19812;SDS011;10066;48.108;11.448;2022-07-03T12:03:23;0.77;;;0.40;;
19812;SDS011;10066;48.108;11.448;2022-07-03T12:05:52;1.52;;;0.60;;
19812;SDS011;10066;48.108;11.448;2022-07-03T12:08:26;1.85;;;0.50;;
19812;SDS011;10066;48.108;11.448;2022-07-03T12:10:59;2.05;;;0.50;;
19812;SDS011;10066;48.108;11.448;2022-07-03T12:13:33;0.55;;;0.55;;
19812;SDS011;10066;48.108;11.448;2022-07-03T12:16:03;1.67;;;0.80;;
19812;SDS011;10066;48.108;11.448;2022-07-03T12:18:44;1.70;;;0.50;;
19812;SDS011;10066;48.108;11.448;2022-07-03T12:21:13;0.93;;;0.70;;
19812;SDS011;10066;48.108;11.448;2022-07-03T12:23:42;1.02;;;0.70;;
19812;SDS011;10066;48.108;11.448;2022-07-03T12:26:10;1.10;;;0.77;;
19812;SDS011;10066;48.108;11.448;2022-07-03T12:28:39;1.02;;;0.52;;
19812;SDS011;10066;48.108;11.448;2022-07-03T12:31:07;0.70;;;0.60;;
19812;SDS011;10066;48.108;11.448;2022-07-03T12:33:34;1.45;;;0.60;;
19812;SDS011;10066;48.108;11.448;2022-07-03T12:36:02;1.13;;;0.60;;
19812;SDS011;10066;48.108;11.448;2022-07-03T12:38:31;0.70;;;0.50;;
19812;SDS011;10066;48.108;11.448;2022-07-03T12:41:02;0.80;;;0.60;;
19812;SDS011;10066;48.108;11.448;2022-07-03T12:43:35;2.20;;;0.82;;
19812;SDS011;10066;48.108;11.448;2022-07-03T12:46:15;1.65;;;0.70;;
19812;SDS011;10066;48.108;11.448;2022-07-03T12:48:45;4.68;;;0.70;;
19812;SDS011;10066;48.108;11.448;2022-07-03T12:51:15;1.15;;;0.80;;
19812;SDS011;10066;48.108;11.448;2022-07-03T12:53:43;0.82;;;0.75;;
19812;SDS011;10066;48.108;11.448;2022-07-03T12:56:20;2.10;;;0.70;;
19812;SDS011;10066;48.108;11.448;2022-07-03T12:58:47;3.22;;;0.80;;
19812;SDS011;10066;48.108;11.448;2022-07-03T13:01:33;0.88;;;0.70;;
19812;SDS011;10066;48.108;11.448;2022-07-03T13:04:02;1.58;;;0.95;;
19812;SDS011;10066;48.108;11.448;2022-07-03T13:06:29;0.98;;;0.88;;
19812;SDS011;10066;48.108;11.448;2022-07-03T13:08:57;1.42;;;0.68;;
19812;SDS011;10066;48.108;11.448;2022-07-03T13:11:25;1.00;;;0.80;;
19812;SDS011;10066;48.108;11.448;2022-07-03T13:14:00;3.42;;;0.80;;
19812;SDS011;10066;48.108;11.448;2022-07-03T13:16:34;1.98;;;0.80;;
19812;SDS011;10066;48.108;11.448;2022-07-03T13:19:05;1.67;;;0.70;;
19812;SDS011;10066;48.108;11.448;2022-07-03T13:21:33;3.17;;;0.98;;
19812;SDS011;10066;48.108;11.448;2022-07-03T13:24:01;2.45;;;0.80;;
19812;SDS011;10066;48.108;11.448;2022-07-03T13:26:28;1.30;;;0.70;;
19812;SDS011;10066;48.108;11.448;2022-07-03T13:28:56;1.38;;;0.80;;
19812;SDS011;10066;48.108;11.448;2022-07-03T13:31:23;4.18;;;0.80;;
19812;SDS011;10066;48.108;11.448;2022-07-03T13:33:52;1.60;;;0.88;;
19812;SDS011;10066;48.108;11.448;2022-07-03T13:36:19;2.53;;;0.98;;
19812;SDS011;10066;48.108;11.448;2022-07-03T13:38:46;1.33;;;0.80;;
19812;SDS011;10066;48.108;11.448;2022-07-03T13:41:15;1.10;;;0.70;;
19812;SDS011;10066;48.108;11.448;2022-07-03T13:43:44;0.50;;;0.50;;
19812;SDS011;10066;48.108;11.448;2022-07-03T13:46:11;1.00;;;0.80;;
19812;SDS011;10066;48.108;11.448;2022-07-03T13:48:38;1.08;;;0.80;;
19812;SDS011;10066;48.108;11.448;2022-07-03T13:51:07;1.45;;;0.80;;
19812;SDS011;10066;48.108;11.448;2022-07-03T13:53:34;1.88;;;0.70;;
19812;SDS011;10066;48.108;11.448;2022-07-03T13:56:01;2.55;;;0.77;;
19812;SDS011;10066;48.108;11.448;2022-07-03T13:58:29;1.85;;;1.10;;
19812;SDS011;10066;48.108;11.448;2022-07-03T14:00:56;1.02;;;0.70;;
19812;SDS011;10066;48.108;11.448;2022-07-03T14:03:29;2.55;;;0.70;;
19812;SDS011;10066;48.108;11.448;2022-07-03T14:05:56;2.35;;;0.80;;
19812;SDS011;10066;48.108;11.448;2022-07-03T14:08:25;1.30;;;0.70;;
19812;SDS011;10066;48.108;11.448;2022-07-03T14:10:53;1.42;;;0.98;;
19812;SDS011;10066;48.108;11.448;2022-07-03T14:13:21;1.55;;;0.80;;
19812;SDS011;10066;48.108;11.448;2022-07-03T14:15:48;4.05;;;0.90;;
19812;SDS011;10066;48.108;11.448;2022-07-03T14:18:15;1.90;;;0.80;;
19812;SDS011;10066;48.108;11.448;2022-07-03T14:20:42;5.35;;;1.10;;
19812;SDS011;10066;48.108;11.448;2022-07-03T14:23:11;2.33;;;1.00;;
19812;SDS011;10066;48.108;11.448;2022-07-03T14:25:40;1.13;;;0.88;;
19812;SDS011;10066;48.108;11.448;2022-07-03T14:28:07;6.38;;;0.98;;
19812;SDS011;10066;48.108;11.448;2022-07-03T14:30:51;2.03;;;1.00;;
19812;SDS011;10066;48.108;11.448;2022-07-03T14:33:35;1.10;;;1.00;;
19812;SDS011;10066;48.108;11.448;2022-07-03T14:36:03;1.88;;;0.90;;
19812;SDS011;10066;48.108;11.448;2022-07-03T14:38:30;1.27;;;0.80;;
19812;SDS011;10066;48.108;11.448;2022-07-03T14:40:58;1.40;;;0.82;;
19812;SDS011;10066;48.108;11.448;2022-07-03T14:43:25;1.95;;;1.00;;
19812;SDS011;10066;48.108;11.448;2022-07-03T14:45:54;3.55;;;0.90;;
19812;SDS011;10066;48.108;11.448;2022-07-03T14:48:21;3.40;;;0.98;;
19812;SDS011;10066;48.108;11.448;2022-07-03T14:50:49;2.80;;;0.75;;
19812;SDS011;10066;48.108;11.448;2022-07-03T14:53:16;4.70;;;3.13;;
19812;SDS011;10066;48.108;11.448;2022-07-03T14:55:43;4.60;;;1.00;;
19812;SDS011;10066;48.108;11.448;2022-07-03T14:58:25;3.00;;;0.82;;
19812;SDS011;10066;48.108;11.448;2022-07-03T15:00:54;1.10;;;0.73;;
19812;SDS011;10066;48.108;11.448;2022-07-03T15:03:27;2.28;;;0.90;;
19812;SDS011;10066;48.108;11.448;2022-07-03T15:05:55;2.00;;;0.90;;
19812;SDS011;10066;48.108;11.448;2022-07-03T15:11:12;2.28;;;1.10;;
19812;SDS011;10066;48.108;11.448;2022-07-03T15:14:01;2.15;;;0.90;;
19812;SDS011;10066;48.108;11.448;2022-07-03T15:16:30;2.03;;;1.08;;